Terminal Aerodrome Forecast
Issued by NWS Cleveland, OH

Home | Current Version | Previous Version | Text Only | Print | Product List | Glossary Off
Versions: 1 2 3 4 5 6 7 8 9 10 11 12 13 14 15 16 17 18 19 20

000
FTUS41 KCLE 142337
TAFYNG
TAF
KYNG 142337Z 1500/1524 15005KT P6SM SCT100
     FM150600 18008KT P6SM BKN150 WS020/21035KT
     FM151100 20010G18KT P6SM BKN070
     FM151400 21015G25KT P6SM BKN050
     FM152000 26020G30KT 6SM -SHRA OVC025=

USA.gov is the U.S. government's official web portal to all federal, state and local government web resources and services.